createdAt,value
2019-02-25T00:01:11.343Z,15.78
2019-02-25T00:03:40.145Z,15.75
2019-02-25T00:06:08.462Z,16.00
2019-02-25T00:08:36.875Z,15.53
2019-02-25T00:11:06.110Z,16.67
2019-02-25T00:13:34.536Z,16.80
2019-02-25T00:16:02.952Z,16.07
2019-02-25T00:18:30.980Z,16.60
2019-02-25T00:20:59.052Z,16.30
2019-02-25T00:23:27.099Z,16.50
2019-02-25T00:25:55.565Z,16.30
2019-02-25T00:28:23.931Z,16.35
2019-02-25T00:30:52.005Z,16.10
2019-02-25T00:33:20.384Z,15.70
2019-02-25T00:35:49.156Z,16.40
2019-02-25T00:38:17.484Z,16.53
2019-02-25T00:40:45.533Z,16.10
2019-02-25T00:43:13.895Z,16.60
2019-02-25T00:45:43.080Z,16.85
2019-02-25T00:48:11.455Z,15.90
2019-02-25T00:50:40.089Z,16.50
2019-02-25T00:53:08.961Z,16.35
2019-02-25T00:55:37.092Z,16.60
2019-02-25T00:58:05.205Z,16.87
2019-02-25T01:00:33.279Z,15.90
2019-02-25T01:03:01.340Z,16.67
2019-02-25T01:05:29.715Z,16.90
2019-02-25T01:07:58.067Z,17.10
2019-02-25T01:10:26.781Z,16.65
2019-02-25T01:12:55.182Z,17.07
2019-02-25T01:15:23.945Z,16.65
2019-02-25T01:17:52.629Z,16.32
2019-02-25T01:20:20.683Z,17.00
2019-02-25T01:22:48.784Z,17.50
2019-02-25T01:25:17.556Z,16.60
2019-02-25T01:27:45.893Z,17.25
2019-02-25T01:30:14.263Z,16.70
2019-02-25T01:32:43.000Z,16.82
2019-02-25T01:35:12.023Z,17.05
2019-02-25T01:37:40.818Z,16.62
2019-02-25T01:40:09.535Z,17.55
2019-02-25T01:42:37.884Z,17.30
2019-02-25T01:45:06.738Z,17.40
2019-02-25T01:47:34.850Z,16.45
2019-02-25T01:50:03.203Z,16.85
2019-02-25T01:52:31.259Z,17.30
2019-02-25T01:54:59.308Z,17.30
2019-02-25T01:57:27.612Z,16.20
2019-02-25T01:59:56.276Z,17.25
2019-02-25T02:02:24.362Z,17.40
2019-02-25T02:04:52.755Z,17.70
2019-02-25T02:07:20.856Z,16.75
2019-02-25T02:09:49.284Z,18.03
2019-02-25T02:12:17.321Z,17.30
2019-02-25T02:14:45.397Z,17.55
2019-02-25T02:17:13.835Z,17.65
2019-02-25T02:19:42.399Z,17.00
2019-02-25T02:22:10.488Z,17.00
2019-02-25T02:24:38.535Z,17.35
2019-02-25T02:27:06.614Z,18.30
2019-02-25T02:29:35.034Z,18.12
2019-02-25T02:32:03.628Z,17.73
2019-02-25T02:34:32.013Z,18.67
2019-02-25T02:37:00.458Z,19.27
2019-02-25T02:39:28.831Z,18.10
2019-02-25T02:42:16.569Z,18.00
2019-02-25T02:44:45.767Z,18.20
2019-02-25T02:47:38.780Z,17.82
2019-02-25T02:50:08.638Z,17.67
2019-02-25T02:52:37.001Z,18.40
2019-02-25T02:55:05.080Z,19.35
2019-02-25T02:57:33.986Z,19.05
2019-02-25T03:00:02.474Z,18.50
2019-02-25T03:02:30.546Z,19.00
2019-02-25T03:04:58.570Z,19.23
2019-02-25T03:07:27.007Z,19.40
2019-02-25T03:09:55.055Z,19.23
2019-02-25T03:12:23.119Z,18.87
2019-02-25T03:14:51.472Z,19.45
2019-02-25T03:17:19.784Z,19.32
2019-02-25T03:19:48.200Z,19.62
2019-02-25T03:22:16.853Z,19.50
2019-02-25T03:24:45.276Z,19.75
2019-02-25T03:27:13.613Z,19.33
2019-02-25T03:29:42.292Z,19.42
2019-02-25T03:32:10.661Z,19.70
2019-02-25T03:34:39.300Z,19.52
2019-02-25T03:37:07.661Z,18.90
2019-02-25T03:39:36.020Z,18.87
2019-02-25T03:42:04.504Z,19.13
2019-02-25T03:44:32.531Z,18.62
2019-02-25T03:47:00.956Z,19.00
2019-02-25T03:49:29.397Z,18.67
2019-02-25T03:51:57.713Z,17.35
2019-02-25T03:54:26.401Z,18.70
2019-02-25T03:56:54.448Z,17.92
2019-02-25T03:59:22.513Z,18.70
2019-02-25T04:01:50.556Z,19.00
2019-02-25T04:04:19.303Z,18.82
2019-02-25T04:06:47.475Z,18.67
2019-02-25T04:09:16.470Z,18.52
2019-02-25T04:11:44.848Z,18.20
2019-02-25T04:14:13.532Z,18.97
2019-02-25T04:16:41.568Z,18.42
2019-02-25T04:19:09.989Z,18.92
2019-02-25T04:21:38.354Z,24.67
2019-02-25T04:24:06.744Z,19.70
2019-02-25T04:26:35.128Z,20.07
2019-02-25T04:29:03.828Z,19.80
2019-02-25T04:31:32.192Z,19.02
2019-02-25T04:34:00.532Z,19.10
2019-02-25T04:36:29.188Z,19.42
2019-02-25T04:38:57.838Z,18.95
2019-02-25T04:41:26.181Z,18.40
2019-02-25T04:43:54.499Z,19.32
2019-02-25T04:46:22.524Z,20.07
2019-02-25T04:48:50.975Z,19.33
2019-02-25T04:51:19.381Z,19.60
2019-02-25T04:53:48.017Z,19.75
2019-02-25T04:56:16.130Z,20.45
2019-02-25T04:58:44.466Z,20.20
2019-02-25T05:01:12.493Z,19.65
2019-02-25T05:03:41.220Z,20.20
2019-02-25T05:06:09.583Z,19.87
2019-02-25T05:08:37.633Z,18.85
2019-02-25T05:11:06.413Z,19.92
2019-02-25T05:13:34.493Z,19.70
2019-02-25T05:16:02.829Z,20.12
2019-02-25T05:18:31.176Z,18.05
2019-02-25T05:20:59.986Z,19.90
2019-02-25T05:23:28.868Z,19.20
2019-02-25T05:25:56.953Z,19.40
2019-02-25T05:28:24.981Z,19.50
2019-02-25T05:30:53.401Z,20.20
2019-02-25T05:33:21.798Z,19.70
2019-02-25T05:35:50.159Z,19.63
2019-02-25T05:38:18.181Z,19.67
2019-02-25T05:40:46.269Z,19.20
2019-02-25T05:43:15.088Z,18.73
2019-02-25T05:45:44.090Z,19.65
2019-02-25T05:48:12.417Z,19.92
2019-02-25T05:50:40.747Z,20.30
2019-02-25T05:53:09.127Z,18.82
2019-02-25T05:55:37.162Z,19.37
2019-02-25T05:58:05.213Z,19.80
2019-02-25T06:00:33.505Z,20.45
2019-02-25T06:03:01.937Z,20.10
2019-02-25T06:05:30.327Z,20.05
2019-02-25T06:07:58.384Z,18.85
2019-02-25T06:10:26.408Z,20.10
2019-02-25T06:12:54.696Z,19.90
2019-02-25T06:15:23.096Z,20.60
2019-02-25T06:17:51.902Z,20.68
2019-02-25T06:20:19.936Z,20.05
2019-02-25T06:22:47.970Z,20.88
2019-02-25T06:25:16.190Z,20.60
2019-02-25T06:27:44.503Z,20.40
2019-02-25T06:30:16.294Z,20.80
2019-02-25T06:32:44.933Z,20.00
2019-02-25T06:35:13.556Z,19.32
2019-02-25T06:37:41.992Z,20.70
2019-02-25T06:40:11.068Z,21.07
2019-02-25T06:42:39.147Z,20.60
2019-02-25T06:45:07.739Z,20.05
2019-02-25T06:47:35.920Z,19.30
2019-02-25T06:50:04.709Z,20.10
2019-02-25T06:52:32.760Z,20.90
2019-02-25T06:55:00.871Z,20.37
2019-02-25T06:57:29.540Z,19.25
2019-02-25T06:59:57.613Z,20.60
2019-02-25T07:02:26.317Z,19.20
2019-02-25T07:04:59.795Z,20.37
2019-02-25T07:07:45.829Z,20.30
2019-02-25T07:10:33.146Z,20.30
2019-02-25T07:13:35.916Z,20.50
2019-02-25T07:16:35.259Z,19.60
2019-02-25T07:19:37.592Z,19.52
2019-02-25T07:22:23.764Z,20.60
2019-02-25T07:25:11.100Z,20.32
2019-02-25T07:28:16.351Z,20.35
2019-02-25T07:30:52.713Z,19.13
2019-02-25T07:33:45.690Z,19.60
2019-02-25T07:36:32.758Z,19.12
2019-02-25T07:39:25.872Z,19.50
2019-02-25T07:42:22.303Z,19.32
2019-02-25T07:45:09.372Z,19.92
2019-02-25T07:48:02.991Z,19.92
2019-02-25T07:50:47.418Z,20.10
2019-02-25T07:53:34.240Z,20.30
2019-02-25T07:56:24.357Z,20.30
2019-02-25T07:59:14.841Z,21.30
2019-02-25T08:01:57.933Z,21.00
2019-02-25T08:04:41.887Z,20.48
2019-02-25T08:07:35.263Z,19.80
2019-02-25T08:10:13.491Z,20.30
2019-02-25T08:12:46.978Z,20.43
2019-02-25T08:15:40.313Z,20.35
2019-02-25T08:18:34.105Z,20.05
2019-02-25T08:21:24.250Z,19.97
2019-02-25T08:24:28.228Z,20.40
2019-02-25T08:27:15.835Z,55.38
2019-02-25T08:30:05.924Z,23.52
2019-02-25T08:32:47.009Z,20.30
2019-02-25T08:35:29.113Z,20.97
2019-02-25T08:38:15.403Z,21.02
2019-02-25T08:41:07.668Z,21.33
2019-02-25T08:43:53.787Z,21.62
2019-02-25T08:46:35.699Z,20.85
2019-02-25T08:49:15.923Z,21.15
2019-02-25T08:51:43.981Z,21.65
2019-02-25T08:54:12.343Z,21.73
2019-02-25T08:56:40.724Z,22.23
2019-02-25T08:59:08.762Z,21.30
2019-02-25T09:01:36.840Z,22.32
2019-02-25T09:04:04.872Z,28.75
2019-02-25T09:06:33.294Z,26.62
2019-02-25T09:09:01.701Z,28.30
2019-02-25T09:11:29.790Z,30.82
2019-02-25T09:13:57.856Z,31.10
2019-02-25T09:16:26.222Z,31.50
2019-02-25T09:18:54.633Z,33.78
2019-02-25T09:21:31.429Z,34.38
2019-02-25T09:23:53.204Z,37.80
2019-02-25T09:26:21.549Z,36.55
2019-02-25T09:28:49.974Z,41.03
2019-02-25T09:31:18.025Z,43.17
2019-02-25T09:33:46.382Z,47.13
2019-02-25T09:36:14.901Z,46.63
2019-02-25T09:38:43.225Z,50.38
2019-02-25T09:41:11.424Z,49.03
2019-02-25T09:43:40.416Z,47.60
2019-02-25T09:46:09.164Z,51.00
2019-02-25T09:48:38.338Z,54.70
2019-02-25T09:51:06.653Z,52.20
2019-02-25T09:53:34.729Z,51.60
2019-02-25T09:56:03.056Z,48.20
2019-02-25T09:58:31.149Z,43.90
2019-02-25T10:00:59.658Z,40.90
2019-02-25T10:03:27.736Z,39.50
2019-02-25T10:05:56.209Z,39.27
2019-02-25T10:08:24.669Z,37.55
2019-02-25T10:10:53.020Z,38.67
2019-02-25T10:13:21.305Z,37.03
2019-02-25T10:15:49.339Z,37.93
2019-02-25T10:18:17.417Z,38.30
2019-02-25T10:20:46.258Z,37.53
2019-02-25T10:23:14.621Z,40.70
2019-02-25T10:25:43.061Z,38.95
2019-02-25T10:28:11.463Z,39.90
2019-02-25T10:30:39.534Z,42.93
2019-02-25T10:33:08.232Z,52.73
2019-02-25T10:35:36.277Z,41.55
2019-02-25T10:38:04.937Z,41.30
2019-02-25T10:40:33.581Z,41.60
2019-02-25T10:43:02.036Z,42.95
2019-02-25T10:45:30.849Z,41.18
2019-02-25T10:47:59.004Z,44.13
2019-02-25T10:50:28.703Z,43.98
2019-02-25T10:53:03.418Z,44.38
2019-02-25T10:55:34.743Z,42.62
2019-02-25T10:58:03.838Z,42.10
2019-02-25T11:00:32.220Z,41.95
2019-02-25T11:03:00.256Z,42.23
2019-02-25T11:05:30.589Z,42.33
2019-02-25T11:07:59.752Z,42.08
2019-02-25T11:10:34.822Z,43.28
2019-02-25T11:13:04.296Z,39.48
2019-02-25T11:15:34.075Z,39.33
2019-02-25T11:18:02.902Z,39.67
2019-02-25T11:20:33.148Z,41.70
2019-02-25T11:23:01.112Z,56.80
2019-02-25T11:25:30.223Z,43.52
2019-02-25T11:27:58.944Z,41.75
2019-02-25T11:30:27.617Z,43.20
2019-02-25T11:32:57.831Z,40.70
2019-02-25T11:35:26.598Z,40.38
2019-02-25T11:37:57.062Z,41.05
2019-02-25T11:40:26.036Z,40.23
2019-02-25T11:42:55.152Z,39.58
2019-02-25T11:45:23.374Z,39.70
2019-02-25T11:47:51.908Z,46.10
2019-02-25T11:50:20.858Z,48.53
2019-02-25T11:52:51.201Z,39.75
2019-02-25T11:55:19.404Z,39.30
2019-02-25T11:57:48.371Z,39.27
2019-02-25T12:00:17.852Z,38.15
2019-02-25T12:02:46.215Z,37.08
2019-02-25T12:05:15.383Z,35.75
2019-02-25T12:07:43.924Z,34.38
2019-02-25T12:10:12.403Z,34.63
2019-02-25T12:12:40.789Z,34.33
2019-02-25T12:15:09.432Z,33.40
2019-02-25T12:17:37.853Z,34.05
2019-02-25T12:20:06.641Z,33.70
2019-02-25T12:22:35.015Z,32.58
2019-02-25T12:25:03.084Z,29.63
2019-02-25T12:27:31.141Z,28.50
2019-02-25T12:29:59.513Z,28.67
2019-02-25T12:32:27.603Z,27.75
2019-02-25T12:34:56.385Z,26.87
2019-02-25T12:37:24.433Z,42.17
2019-02-25T12:39:52.546Z,27.77
2019-02-25T12:42:20.930Z,27.15
2019-02-25T12:44:48.985Z,27.13
2019-02-25T12:47:17.433Z,26.73
2019-02-25T12:49:45.440Z,26.62
2019-02-25T12:52:14.039Z,26.27
2019-02-25T12:54:42.408Z,27.50
2019-02-25T12:57:10.811Z,27.52
2019-02-25T12:59:38.893Z,28.37
2019-02-25T13:02:06.957Z,27.73
2019-02-25T13:04:35.311Z,27.90
2019-02-25T13:07:03.380Z,29.87
2019-02-25T13:09:31.753Z,33.90
2019-02-25T13:11:59.841Z,26.20
2019-02-25T13:14:27.905Z,26.50
2019-02-25T13:16:56.815Z,25.80
2019-02-25T13:19:25.159Z,26.10
2019-02-25T13:21:53.317Z,25.97
2019-02-25T13:24:21.732Z,25.30
2019-02-25T13:26:49.832Z,26.70
2019-02-25T13:29:18.482Z,26.00
2019-02-25T13:31:47.102Z,26.85
2019-02-25T13:34:15.417Z,25.68
2019-02-25T13:36:43.756Z,25.72
2019-02-25T13:39:11.852Z,26.53
2019-02-25T13:41:40.543Z,27.32
2019-02-25T13:44:08.887Z,27.55
2019-02-25T13:46:37.263Z,27.15
2019-02-25T13:49:05.280Z,27.58
2019-02-25T13:51:33.705Z,27.00
2019-02-25T13:54:01.754Z,26.87
2019-02-25T13:56:29.842Z,27.13
2019-02-25T13:58:57.887Z,26.35
2019-02-25T14:01:28.863Z,27.63
2019-02-25T14:03:56.832Z,27.27
2019-02-25T14:06:24.892Z,25.52
2019-02-25T14:08:54.243Z,31.23
2019-02-25T14:11:24.156Z,28.30
2019-02-25T14:13:52.341Z,28.42
2019-02-25T14:16:21.019Z,28.50
2019-02-25T14:18:50.109Z,28.80
2019-02-25T14:21:19.078Z,28.95
2019-02-25T14:23:47.198Z,29.07
2019-02-25T14:26:15.245Z,27.93
2019-02-25T14:28:43.332Z,28.65
2019-02-25T14:31:11.729Z,28.40
2019-02-25T14:33:40.256Z,29.65
2019-02-25T14:36:10.683Z,29.42
2019-02-25T14:38:38.441Z,29.57
2019-02-25T14:41:08.818Z,29.80
2019-02-25T14:43:41.735Z,31.40
2019-02-25T14:46:07.751Z,31.00
2019-02-25T14:48:37.174Z,31.30
2019-02-25T14:51:05.688Z,31.60
2019-02-25T14:53:34.081Z,30.97
2019-02-25T14:56:03.881Z,79.92
2019-02-25T14:58:35.529Z,37.13
2019-02-25T15:01:02.769Z,36.00
2019-02-25T15:03:31.157Z,32.10
2019-02-25T15:05:59.819Z,31.90
2019-02-25T15:08:28.482Z,32.20
2019-02-25T15:11:00.104Z,32.13
2019-02-25T15:13:28.209Z,31.37
2019-02-25T15:15:58.167Z,31.45
2019-02-25T15:18:27.035Z,34.73
2019-02-25T15:20:56.440Z,30.80
2019-02-25T15:23:27.958Z,30.15
2019-02-25T15:26:04.821Z,30.37
2019-02-25T15:28:26.493Z,29.12
2019-02-25T15:30:54.579Z,29.12
2019-02-25T15:33:22.960Z,28.90
2019-02-25T15:35:51.040Z,34.78
2019-02-25T15:38:19.483Z,35.45
2019-02-25T15:40:47.836Z,33.28
2019-02-25T15:43:15.991Z,28.80
2019-02-25T15:45:46.317Z,28.75
2019-02-25T15:48:15.942Z,28.40
2019-02-25T15:50:46.118Z,27.75
2019-02-25T15:53:16.013Z,27.98
2019-02-25T15:55:44.936Z,28.32
2019-02-25T15:58:13.191Z,28.00
2019-02-25T16:00:44.130Z,28.00
2019-02-25T16:03:13.700Z,28.00
2019-02-25T16:05:43.792Z,28.60
2019-02-25T16:08:16.174Z,28.90
2019-02-25T16:10:42.301Z,28.38
2019-02-25T16:13:14.078Z,34.13
2019-02-25T16:15:41.592Z,29.80
2019-02-25T16:18:13.660Z,27.80
2019-02-25T16:20:40.964Z,28.42
2019-02-25T16:23:09.674Z,28.40
2019-02-25T16:25:39.241Z,27.82
2019-02-25T16:28:08.055Z,28.20
2019-02-25T16:30:36.980Z,29.50
2019-02-25T16:33:07.291Z,31.50
2019-02-25T16:35:35.324Z,35.10
2019-02-25T16:38:05.235Z,30.48
2019-02-25T16:40:36.118Z,28.23
2019-02-25T16:43:05.251Z,31.60
2019-02-25T16:45:35.479Z,28.25
2019-02-25T16:48:04.918Z,27.45
2019-02-25T16:50:34.530Z,28.87
2019-02-25T16:53:05.917Z,27.37
2019-02-25T16:55:32.654Z,29.25
2019-02-25T16:58:01.794Z,29.12
2019-02-25T17:00:32.428Z,30.12
2019-02-25T17:03:03.572Z,29.00
2019-02-25T17:05:31.295Z,29.27
2019-02-25T17:08:01.285Z,29.05
2019-02-25T17:10:31.963Z,34.03
2019-02-25T17:12:59.753Z,29.63
2019-02-25T17:15:28.197Z,27.62
2019-02-25T17:17:58.266Z,27.00
2019-02-25T17:20:27.851Z,26.82
2019-02-25T17:22:55.653Z,27.20
2019-02-25T17:25:26.840Z,28.90
2019-02-25T17:27:53.416Z,29.10
2019-02-25T17:30:21.951Z,29.57
2019-02-25T17:32:51.371Z,28.07
2019-02-25T17:35:23.136Z,28.63
2019-02-25T17:37:50.697Z,31.57
2019-02-25T17:40:19.039Z,33.25
2019-02-25T17:42:49.301Z,32.80
2019-02-25T17:45:18.174Z,78.07
2019-02-25T17:47:46.641Z,69.15
2019-02-25T17:50:16.113Z,96.90
2019-02-25T17:52:45.166Z,41.83
2019-02-25T17:55:15.273Z,32.78
2019-02-25T17:57:43.345Z,26.10
2019-02-25T18:00:15.399Z,26.40
2019-02-25T18:02:43.883Z,31.93
2019-02-25T18:05:14.120Z,27.58
2019-02-25T18:07:44.240Z,53.87
2019-02-25T18:10:13.025Z,46.35
2019-02-25T18:12:41.497Z,37.28
2019-02-25T18:15:11.945Z,31.65
2019-02-25T18:17:42.588Z,26.52
2019-02-25T18:20:11.894Z,26.70
2019-02-25T18:22:40.349Z,27.37
2019-02-25T18:25:08.740Z,27.13
2019-02-25T18:27:37.409Z,26.93
2019-02-25T18:30:07.123Z,25.92
2019-02-25T18:32:37.092Z,25.07
2019-02-25T18:35:06.152Z,25.20
2019-02-25T18:37:35.486Z,24.40
2019-02-25T18:40:04.889Z,23.87
2019-02-25T18:42:34.885Z,25.70
2019-02-25T18:45:03.191Z,29.37
2019-02-25T18:47:31.714Z,23.73
2019-02-25T18:50:00.933Z,22.60
2019-02-25T18:52:30.118Z,23.40
2019-02-25T18:54:59.815Z,23.50
2019-02-25T18:57:29.521Z,23.12
2019-02-25T18:59:59.364Z,69.77
2019-02-25T19:02:28.762Z,39.87
2019-02-25T19:04:58.238Z,25.00
2019-02-25T19:07:27.314Z,22.50
2019-02-25T19:09:58.104Z,24.37
2019-02-25T19:12:26.322Z,25.85
2019-02-25T19:14:55.758Z,23.85
2019-02-25T19:17:25.438Z,22.70
2019-02-25T19:19:54.363Z,23.80
2019-02-25T19:22:24.720Z,23.75
2019-02-25T19:24:53.161Z,23.77
2019-02-25T19:27:21.897Z,23.45
2019-02-25T19:29:51.550Z,23.57
2019-02-25T19:32:20.949Z,27.23
2019-02-25T19:34:51.921Z,29.52
2019-02-25T19:37:20.199Z,24.37
2019-02-25T19:39:48.847Z,23.47
2019-02-25T19:42:20.022Z,23.30
2019-02-25T19:44:47.861Z,23.55
2019-02-25T19:47:17.272Z,23.62
2019-02-25T19:49:46.899Z,24.30
2019-02-25T19:52:16.829Z,23.15
2019-02-25T19:54:46.404Z,25.12
2019-02-25T19:57:18.169Z,24.20
2019-02-25T19:59:46.221Z,24.63
2019-02-25T20:02:15.759Z,24.45
2019-02-25T20:04:45.397Z,25.62
2019-02-25T20:07:15.902Z,24.63
2019-02-25T20:09:44.353Z,25.95
2019-02-25T20:12:12.654Z,43.42
2019-02-25T20:14:42.557Z,41.65
2019-02-25T20:17:11.061Z,38.45
2019-02-25T20:19:41.288Z,28.25
2019-02-25T20:22:10.439Z,25.40
2019-02-25T20:24:44.159Z,24.25
2019-02-25T20:27:10.230Z,23.85
2019-02-25T20:29:38.735Z,23.55
2019-02-25T20:32:10.057Z,25.30
2019-02-25T20:34:39.125Z,25.25
2019-02-25T20:37:07.505Z,26.10
2019-02-25T20:39:38.111Z,35.73
2019-02-25T20:42:06.720Z,34.38
2019-02-25T20:44:35.131Z,33.60
2019-02-25T20:47:04.106Z,31.07
2019-02-25T20:49:32.355Z,31.30
2019-02-25T20:52:01.243Z,32.07
2019-02-25T20:54:29.846Z,30.65
2019-02-25T20:56:58.899Z,28.52
2019-02-25T20:59:28.198Z,27.95
2019-02-25T21:01:57.030Z,25.92
2019-02-25T21:04:27.534Z,25.50
2019-02-25T21:06:55.133Z,25.40
2019-02-25T21:09:23.271Z,26.93
2019-02-25T21:11:51.875Z,26.57
2019-02-25T21:14:20.670Z,27.32
2019-02-25T21:16:48.738Z,28.00
2019-02-25T21:19:18.417Z,28.07
2019-02-25T21:21:47.393Z,28.27
2019-02-25T21:24:15.479Z,29.05
2019-02-25T21:26:43.556Z,29.67
2019-02-25T21:29:12.008Z,29.30
2019-02-25T21:31:43.182Z,28.50
2019-02-25T21:34:10.368Z,30.05
2019-02-25T21:36:40.259Z,30.00
2019-02-25T21:39:10.376Z,31.15
2019-02-25T21:41:41.810Z,30.55
2019-02-25T21:44:14.250Z,31.50
2019-02-25T21:46:39.633Z,31.50
2019-02-25T21:49:08.386Z,31.00
2019-02-25T21:51:37.018Z,31.02
2019-02-25T21:54:08.921Z,35.28
2019-02-25T21:56:37.150Z,37.70
2019-02-25T21:59:06.269Z,42.60
2019-02-25T22:01:36.805Z,37.67
2019-02-25T22:04:04.611Z,32.70
2019-02-25T22:06:33.351Z,32.73
2019-02-25T22:09:02.986Z,34.48
2019-02-25T22:11:31.725Z,35.20
2019-02-25T22:14:00.036Z,33.65
2019-02-25T22:16:30.047Z,33.03
2019-02-25T22:18:58.821Z,32.60
2019-02-25T22:21:27.624Z,32.17
2019-02-25T22:23:57.630Z,32.55
2019-02-25T22:26:29.032Z,32.70
2019-02-25T22:28:57.416Z,31.23
2019-02-25T22:31:25.404Z,31.27
2019-02-25T22:33:54.375Z,31.80
2019-02-25T22:36:22.772Z,32.48
2019-02-25T22:38:51.364Z,34.67
2019-02-25T22:41:20.585Z,36.58
2019-02-25T22:43:50.057Z,34.35
2019-02-25T22:46:18.167Z,34.50
2019-02-25T22:48:47.277Z,32.60
2019-02-25T22:51:15.483Z,32.57
2019-02-25T22:53:43.873Z,32.80
2019-02-25T22:56:13.537Z,33.58
2019-02-25T22:58:43.038Z,33.40
2019-02-25T23:01:17.540Z,33.10
2019-02-25T23:03:44.890Z,34.50
2019-02-25T23:06:13.546Z,33.50
2019-02-25T23:08:44.219Z,33.25
2019-02-25T23:11:14.389Z,33.70
2019-02-25T23:13:45.183Z,34.30
2019-02-25T23:16:13.764Z,32.83
2019-02-25T23:18:43.264Z,33.78
2019-02-25T23:21:11.688Z,33.83
2019-02-25T23:23:40.181Z,35.10
2019-02-25T23:26:10.336Z,34.05
2019-02-25T23:28:38.619Z,33.38
2019-02-25T23:31:06.651Z,33.93
2019-02-25T23:33:38.178Z,33.67
2019-02-25T23:36:05.108Z,33.45
2019-02-25T23:38:33.184Z,34.40
2019-02-25T23:41:05.285Z,34.20
2019-02-25T23:43:35.972Z,34.78
2019-02-25T23:46:02.291Z,32.83
2019-02-25T23:48:33.722Z,33.53
2019-02-25T23:51:01.813Z,31.93
2019-02-25T23:53:31.052Z,32.43
2019-02-25T23:55:59.888Z,33.00
2019-02-25T23:58:28.266Z,32.70
